| time (UTC) | temp C | wind direction | speed KPH | gust KPH | rain 1hr cm | rain 24hr cm | rain mn cm | humidity % | barometer mb |
| 20260906205912 | 23 | 161 | 9.7 | 14.5 | 0.00 | 0.00 | 0.00 | 43 | |
| 20260906205412 | 22 | 48 | 4.8 | 6.4 | 0.00 | 0.00 | 0.00 | 45 | |
| 20260906204911 | 22 | 48 | 4.8 | 6.4 | 0.00 | 0.00 | 0.00 | 45 | |
| 20260906204411 | 21 | 132 | 9.7 | 14.5 | 0.00 | 0.00 | 0.00 | 48 | |
| 20260906203911 | 21 | 132 | 9.7 | 14.5 | 0.00 | 0.00 | 0.00 | 48 | |
| 20260906203411 | 21 | 132 | 9.7 | 14.5 | 0.00 | 0.00 | 0.00 | 48 | |
| 20260906202911 | 21 | 5 | 6.4 | 11.3 | 0.00 | 0.00 | 0.00 | 47 | |
| 20260906202411 | 21 | 5 | 6.4 | 11.3 | 0.00 | 0.00 | 0.00 | 47 | |
| 20260906201911 | 22 | 347 | 6.4 | 12.9 | 0.00 | 0.00 | 0.00 | 47 | |
| 20260906201411 | 22 | 347 | 6.4 | 12.9 | 0.00 | 0.00 | 0.00 | 47 | |
| 20260906200911 | 21 | 34 | 4.8 | 11.3 | 0.00 | 0.00 | 0.00 | 47 | |
| 20260906200411 | 21 | 34 | 4.8 | 11.3 | 0.00 | 0.00 | 0.00 | 47 | |
| 20260906195911 | 21 | 34 | 4.8 | 11.3 | 0.00 | 0.00 | 0.00 | 47 | |
| 20260906195411 | 21 | 212 | 4.8 | 8.0 | 0.00 | 0.00 | 0.00 | 49 | |
| 20260906194411 | 21 | 233 | 6.4 | 11.3 | 0.00 | 0.00 | 0.00 | 49 | |
| 20260906193911 | 21 | 233 | 6.4 | 11.3 | 0.00 | 0.00 | 0.00 | 49 | |
| 20260906193411 | 21 | 233 | 6.4 | 11.3 | 0.00 | 0.00 | 0.00 | 49 | |
| 20260906192911 | 19 | 177 | 8.0 | 9.7 | 0.00 | 0.00 | 0.00 | 52 | |
| 20260906192411 | 19 | 177 | 8.0 | 9.7 | 0.00 | 0.00 | 0.00 | 52 | |
| 20260906191911 | 20 | 16 | 4.8 | 8.0 | 0.00 | 0.00 | 0.00 | 51 | |
| 20260906191411 | 20 | 16 | 4.8 | 8.0 | 0.00 | 0.00 | 0.00 | 51 | |
| 20260906190911 | 20 | 70 | 6.4 | 12.9 | 0.00 | 0.00 | 0.00 | 50 | |
| 20260906190411 | 20 | 70 | 6.4 | 12.9 | 0.00 | 0.00 | 0.00 | 50 | |
| 20260906185911 | 20 | 70 | 6.4 | 12.9 | 0.00 | 0.00 | 0.00 | 50 | |
| 20260906185411 | 18 | 143 | 6.4 | 11.3 | 0.00 | 0.00 | 0.00 | 53 | |
| 20260906184911 | 18 | 143 | 6.4 | 11.3 | 0.00 | 0.00 | 0.00 | 53 | |
| 20260906184411 | 18 | 258 | 4.8 | 8.0 | 0.00 | 0.00 | 0.00 | 54 | |
| 20260906183911 | 18 | 258 | 4.8 | 8.0 | 0.00 | 0.00 | 0.00 | 54 | |
| 20260906183411 | 18 | 258 | 4.8 | 8.0 | 0.00 | 0.00 | 0.00 | 54 | |
| 20260906182911 | 17 | 73 | 4.8 | 9.7 | 0.00 | 0.00 | 0.00 | 55 | |
| 20260906182411 | 17 | 73 | 4.8 | 9.7 | 0.00 | 0.00 | 0.00 | 55 | |
| 20260906181911 | 17 | 57 | 8.0 | 11.3 | 0.00 | 0.00 | 0.00 | 54 | |
| 20260906181411 | 17 | 57 | 8.0 | 11.3 | 0.00 | 0.00 | 0.00 | 54 | |
| 20260906180911 | 17 | 158 | 4.8 | 8.0 | 0.00 | 0.00 | 0.00 | 54 | |
| 20260906180411 | 17 | 158 | 4.8 | 8.0 | 0.00 | 0.00 | 0.00 | 54 | |
| 20260906175911 | 17 | 158 | 4.8 | 8.0 | 0.00 | 0.00 | 0.00 | 54 | |
| 20260906175411 | 17 | 90 | 6.4 | 8.0 | 0.00 | 0.00 | 0.00 | 54 | |
| 20260906174911 | 17 | 90 | 6.4 | 8.0 | 0.00 | 0.00 | 0.00 | 54 | |
| 20260906174411 | 17 | 134 | 6.4 | 9.7 | 0.00 | 0.00 | 0.00 | 56 | |
| 20260906173911 | 17 | 134 | 6.4 | 9.7 | 0.00 | 0.00 | 0.00 | 56 | |
| 20260906173411 | 17 | 134 | 6.4 | 9.7 | 0.00 | 0.00 | 0.00 | 56 | |
| 20260906172911 | 15 | 120 | 8.0 | 11.3 | 0.00 | 0.00 | 0.00 | 60 | |
| 20260906172411 | 15 | 120 | 8.0 | 11.3 | 0.00 | 0.00 | 0.00 | 60 | |
| 20260906171911 | 16 | 148 | 4.8 | 8.0 | 0.00 | 0.00 | 0.00 | 59 | |
| 20260906171411 | 16 | 148 | 4.8 | 8.0 | 0.00 | 0.00 | 0.00 | 59 | |
| 20260906170911 | 16 | 108 | 3.2 | 6.4 | 0.00 | 0.00 | 0.00 | 59 | |
| 20260906170411 | 16 | 108 | 3.2 | 6.4 | 0.00 | 0.00 | 0.00 | 59 | |
| 20260906165911 | 16 | 108 | 3.2 | 6.4 | 0.00 | 0.00 | 0.00 | 59 | |
| 20260906165411 | 14 | 157 | 6.4 | 8.0 | 0.00 | 0.00 | 0.00 | 63 | |
| 20260906164911 | 14 | 157 | 6.4 | 8.0 | 0.00 | 0.00 | 0.00 | 63 | |
| 20260906164411 | 13 | 146 | 8.0 | 9.7 | 0.00 | 0.00 | 0.00 | 66 | |
| 20260906163911 | 13 | 146 | 8.0 | 9.7 | 0.00 | 0.00 | 0.00 | 66 | |
| 20260906163411 | 13 | 146 | 8.0 | 9.7 | 0.00 | 0.00 | 0.00 | 66 | |
| 20260906162911 | 14 | 137 | 6.4 | 11.3 | 0.00 | 0.00 | 0.00 | 63 | |
| 20260906162411 | 14 | 137 | 6.4 | 11.3 | 0.00 | 0.00 | 0.00 | 63 | |
| 20260906161911 | 13 | 152 | 6.4 | 8.0 | 0.00 | 0.00 | 0.00 | 68 | |
| 20260906161411 | 13 | 152 | 6.4 | 8.0 | 0.00 | 0.00 | 0.00 | 68 | |
| 20260906160911 | 11 | 159 | 6.4 | 9.7 | 0.00 | 0.00 | 0.00 | 73 | |
| 20260906160411 | 11 | 159 | 6.4 | 9.7 | 0.00 | 0.00 | 0.00 | 73 | |
| 20260906155911 | 11 | 159 | 6.4 | 9.7 | 0.00 | 0.00 | 0.00 | 73 | |
| 20260906155411 | 12 | 157 | 8.0 | 14.5 | 0.00 | 0.00 | 0.00 | 71 | |
| 20260906154911 | 12 | 157 | 8.0 | 14.5 | 0.00 | 0.00 | 0.00 | 71 | |
| 20260906154411 | 10 | 128 | 0.0 | 4.8 | 0.00 | 0.00 | 0.00 | 77 | |
| 20260906153911 | 10 | 128 | 0.0 | 4.8 | 0.00 | 0.00 | 0.00 | 77 | |
| 20260906153411 | 10 | 128 | 0.0 | 4.8 | 0.00 | 0.00 | 0.00 | 77 | |
| 20260906152911 | 10 | 166 | 4.8 | 8.0 | 0.00 | 0.00 | 0.00 | 79 | |
| 20260906152411 | 10 | 166 | 4.8 | 8.0 | 0.00 | 0.00 | 0.00 | 79 | |
| 20260906151911 | 9 | 118 | 3.2 | 6.4 | 0.00 | 0.00 | 0.00 | 81 | |
| 20260906151411 | 9 | 118 | 3.2 | 6.4 | 0.00 | 0.00 | 0.00 | 81 | |
| 20260906150911 | 8 | 135 | 3.2 | 8.0 | 0.00 | 0.00 | 0.00 | 85 | |
| 20260906150411 | 8 | 135 | 3.2 | 8.0 | 0.00 | 0.00 | 0.00 | 85 | |
| 20260906145911 | 8 | 135 | 3.2 | 8.0 | 0.00 | 0.00 | 0.00 | 85 | |
| 20260906145411 | 7 | 114 | 1.6 | 6.4 | 0.00 | 0.00 | 0.00 | 89 | |
| 20260906144911 | 7 | 114 | 1.6 | 6.4 | 0.00 | 0.00 | 0.00 | 89 | |
| 20260906144411 | 7 | 354 | 1.6 | 4.8 | 0.00 | 0.00 | 0.00 | 92 | |
| 20260906143911 | 7 | 354 | 1.6 | 4.8 | 0.00 | 0.00 | 0.00 | 92 | |
| 20260906143411 | 7 | 354 | 1.6 | 4.8 | 0.00 | 0.00 | 0.00 | 92 | |
| 20260906142911 | 6 | 112 | 0.0 | 1.6 | 0.00 | 0.00 | 0.00 | 92 | |
| 20260906142411 | 6 | 112 | 0.0 | 1.6 | 0.00 | 0.00 | 0.00 | 92 | |
| 20260906141911 | 6 | 0 | 0.0 | 0.0 | 0.00 | 0.00 | 0.00 | 92 | |
| 20260906141411 | 6 | 0 | 0.0 | 0.0 | 0.00 | 0.00 | 0.00 | 92 | |
| 20260906140911 | 6 | 67 | 0.0 | 1.6 | 0.00 | 0.00 | 0.00 | 92 | |
| 20260906140411 | 6 | 67 | 0.0 | 1.6 | 0.00 | 0.00 | 0.00 | 92 | |
| 20260906135911 | 6 | 67 | 0.0 | 1.6 | 0.00 | 0.00 | 0.00 | 92 | |
| 20260906135411 | 6 | 355 | 1.6 | 3.2 | 0.00 | 0.00 | 0.00 | 91 | |
| 20260906134911 | 6 | 355 | 1.6 | 3.2 | 0.00 | 0.00 | 0.00 | 91 | |
| 20260906134411 | 7 | 0 | 0.0 | 0.0 | 0.00 | 0.00 | 0.00 | 90 | |
| 20260906133911 | 7 | 0 | 0.0 | 0.0 | 0.00 | 0.00 | 0.00 | 90 | |
| 20260906133411 | 7 | 0 | 0.0 | 0.0 | 0.00 | 0.00 | 0.00 | 90 | |
| 20260906132911 | 7 | 315 | 0.0 | 3.2 | 0.00 | 0.00 | 0.00 | 89 | |
| 20260906132411 | 7 | 315 | 0.0 | 3.2 | 0.00 | 0.00 | 0.00 | 89 | |
| 20260906131911 | 7 | 0 | 0.0 | 0.0 | 0.00 | 0.00 | 0.00 | 89 | |
| 20260906131411 | 7 | 0 | 0.0 | 0.0 | 0.00 | 0.00 | 0.00 | 89 | |
| 20260906130911 | 7 | 0 | 0.0 | 0.0 | 0.00 | 0.00 | 0.00 | 88 | |
| 20260906130411 | 7 | 0 | 0.0 | 0.0 | 0.00 | 0.00 | 0.00 | 88 | |
| 20260906125911 | 7 | 0 | 0.0 | 0.0 | 0.00 | 0.00 | 0.00 | 88 | |
| 20260906125411 | 8 | 77 | 1.6 | 4.8 | 0.00 | 0.00 | 0.00 | 86 | |
| 20260906124911 | 8 | 77 | 1.6 | 4.8 | 0.00 | 0.00 | 0.00 | 86 | |
| 20260906124411 | 8 | 0 | 0.0 | 0.0 | 0.00 | 0.00 | 0.00 | 85 | |
| 20260906123911 | 8 | 0 | 0.0 | 0.0 | 0.00 | 0.00 | 0.00 | 85 | |
| 20260906123411 | 8 | 0 | 0.0 | 0.0 | 0.00 | 0.00 | 0.00 | 85 | |
| 20260906122911 | 8 | 288 | 1.6 | 4.8 | 0.00 | 0.00 | 0.00 | 84 | |
| 20260906122411 | 8 | 288 | 1.6 | 4.8 | 0.00 | 0.00 | 0.00 | 84 | |
| 20260906121911 | 8 | 94 | 1.6 | 6.4 | 0.00 | 0.00 | 0.00 | 84 | |
| 20260906121411 | 8 | 94 | 1.6 | 6.4 | 0.00 | 0.00 | 0.00 | 84 | |
| 20260906120911 | 8 | 26 | 1.6 | 4.8 | 0.00 | 0.00 | 0.00 | 84 | |
| 20260906120411 | 8 | 26 | 1.6 | 4.8 | 0.00 | 0.00 | 0.00 | 84 | |
| 20260906115911 | 8 | 26 | 1.6 | 4.8 | 0.00 | 0.00 | 0.00 | 84 | |
| 20260906115411 | 8 | 45 | 0.0 | 3.2 | 0.00 | 0.00 | 0.00 | 84 | |
| 20260906114911 | 8 | 45 | 0.0 | 3.2 | 0.00 | 0.00 | 0.00 | 84 | |
| 20260906114411 | 8 | 90 | 3.2 | 8.0 | 0.00 | 0.00 | 0.00 | 84 | |
| 20260906113911 | 8 | 90 | 3.2 | 8.0 | 0.00 | 0.00 | 0.00 | 84 | |
| 20260906113411 | 8 | 90 | 3.2 | 8.0 | 0.00 | 0.00 | 0.00 | 84 | |
| 20260906112911 | 8 | 315 | 1.6 | 4.8 | 0.00 | 0.00 | 0.00 | 85 | |
| 20260906112411 | 8 | 315 | 1.6 | 4.8 | 0.00 | 0.00 | 0.00 | 85 | |
| 20260906111911 | 8 | 0 | 0.0 | 0.0 | 0.00 | 0.00 | 0.00 | 85 | |
| 20260906111411 | 8 | 0 | 0.0 | 0.0 | 0.00 | 0.00 | 0.00 | 85 | |
| 20260906110911 | 8 | 315 | 0.0 | 1.6 | 0.00 | 0.00 | 0.00 | 84 | |
| 20260906110411 | 8 | 315 | 0.0 | 1.6 | 0.00 | 0.00 | 0.00 | 84 | |
| 20260906105911 | 8 | 315 | 0.0 | 1.6 | 0.00 | 0.00 | 0.00 | 84 | |
| 20260906105411 | 8 | 33 | 3.2 | 6.4 | 0.00 | 0.00 | 0.00 | 83 | |
| 20260906104911 | 8 | 33 | 3.2 | 6.4 | 0.00 | 0.00 | 0.00 | 83 | |
| 20260906104411 | 9 | 270 | 0.0 | 3.2 | 0.00 | 0.00 | 0.00 | 81 | |
| 20260906103911 | 9 | 270 | 0.0 | 3.2 | 0.00 | 0.00 | 0.00 | 81 | |
| 20260906103411 | 9 | 270 | 0.0 | 3.2 | 0.00 | 0.00 | 0.00 | 81 | |
| 20260906102911 | 9 | 7 | 0.0 | 1.6 | 0.00 | 0.00 | 0.00 | 81 | |
| 20260906102411 | 9 | 7 | 0.0 | 1.6 | 0.00 | 0.00 | 0.00 | 81 | |
| 20260906101911 | 9 | 6 | 1.6 | 4.8 | 0.00 | 0.00 | 0.00 | 81 | |
| 20260906101411 | 9 | 6 | 1.6 | 4.8 | 0.00 | 0.00 | 0.00 | 81 | |
| 20260906100911 | 9 | 0 | 0.0 | 1.6 | 0.00 | 0.00 | 0.00 | 82 | |
| 20260906100411 | 9 | 0 | 0.0 | 1.6 | 0.00 | 0.00 | 0.00 | 82 | |
| 20260906095911 | 9 | 0 | 0.0 | 1.6 | 0.00 | 0.00 | 0.00 | 82 | |
| 20260906095411 | 10 | 69 | 1.6 | 6.4 | 0.00 | 0.00 | 0.00 | 81 | |
| 20260906094911 | 10 | 69 | 1.6 | 6.4 | 0.00 | 0.00 | 0.00 | 81 | |
| 20260906094411 | 10 | 0 | 0.0 | 4.8 | 0.00 | 0.00 | 0.00 | 81 | |
| 20260906093911 | 10 | 0 | 0.0 | 4.8 | 0.00 | 0.00 | 0.00 | 81 | |
| 20260906093411 | 10 | 0 | 0.0 | 4.8 | 0.00 | 0.00 | 0.00 | 81 | |
| 20260906092911 | 10 | 357 | 1.6 | 6.4 | 0.00 | 0.00 | 0.00 | 81 | |
| 20260906092411 | 10 | 357 | 1.6 | 6.4 | 0.00 | 0.00 | 0.00 | 81 | |
| 20260906091911 | 10 | 355 | 0.0 | 3.2 | 0.00 | 0.00 | 0.00 | 81 | |
| 20260906091411 | 10 | 355 | 0.0 | 3.2 | 0.00 | 0.00 | 0.00 | 81 | |
| 20260906090911 | 10 | 25 | 3.2 | 6.4 | 0.00 | 0.00 | 0.00 | 81 | |
| 20260906090411 | 10 | 25 | 3.2 | 6.4 | 0.00 | 0.00 | 0.00 | 81 | |
| 20260906085911 | 10 | 25 | 3.2 | 6.4 | 0.00 | 0.00 | 0.00 | 81 | |
| 20260906085411 | 10 | 315 | 0.0 | 3.2 | 0.00 | 0.00 | 0.00 | 79 | |
| 20260906084911 | 10 | 315 | 0.0 | 3.2 | 0.00 | 0.00 | 0.00 | 79 | |
| 20260906084411 | 11 | 292 | 0.0 | 3.2 | 0.00 | 0.00 | 0.00 | 77 | |
| 20260906083911 | 11 | 292 | 0.0 | 3.2 | 0.00 | 0.00 | 0.00 | 77 | |
| 20260906083411 | 11 | 292 | 0.0 | 3.2 | 0.00 | 0.00 | 0.00 | 77 | |
| 20260906082911 | 11 | 20 | 3.2 | 6.4 | 0.00 | 0.00 | 0.00 | 77 | |
| 20260906082411 | 11 | 20 | 3.2 | 6.4 | 0.00 | 0.00 | 0.00 | 77 | |
| 20260906081911 | 12 | 59 | 4.8 | 8.0 | 0.00 | 0.00 | 0.00 | 74 | |
| 20260906081411 | 12 | 59 | 4.8 | 8.0 | 0.00 | 0.00 | 0.00 | 74 | |
| 20260906080911 | 11 | 0 | 0.0 | 4.8 | 0.00 | 0.00 | 0.00 | 75 | |
| 20260906080411 | 11 | 0 | 0.0 | 4.8 | 0.00 | 0.00 | 0.00 | 75 | |
| 20260906075911 | 11 | 0 | 0.0 | 4.8 | 0.00 | 0.00 | 0.00 | 75 | |
| 20260906075411 | 12 | 6 | 1.6 | 3.2 | 0.00 | 0.00 | 0.00 | 75 | |
| 20260906074911 | 12 | 6 | 1.6 | 3.2 | 0.00 | 0.00 | 0.00 | 75 | |
| 20260906074411 | 12 | 11 | 3.2 | 6.4 | 0.00 | 0.00 | 0.00 | 72 | |
| 20260906073911 | 12 | 11 | 3.2 | 6.4 | 0.00 | 0.00 | 0.00 | 72 | |
| 20260906073411 | 12 | 11 | 3.2 | 6.4 | 0.00 | 0.00 | 0.00 | 72 | |
| 20260906072911 | 13 | 89 | 4.8 | 14.5 | 0.00 | 0.00 | 0.00 | 71 | |
| 20260906072411 | 13 | 89 | 4.8 | 14.5 | 0.00 | 0.00 | 0.00 | 71 | |
| 20260906071911 | 13 | 62 | 3.2 | 4.8 | 0.00 | 0.00 | 0.00 | 70 | |
| 20260906071411 | 13 | 62 | 3.2 | 4.8 | 0.00 | 0.00 | 0.00 | 70 | |
| 20260906070911 | 13 | 97 | 4.8 | 12.9 | 0.00 | 0.00 | 0.00 | 69 | |
| 20260906070411 | 13 | 97 | 4.8 | 12.9 | 0.00 | 0.00 | 0.00 | 69 | |
| 20260906065911 | 13 | 97 | 4.8 | 12.9 | 0.00 | 0.00 | 0.00 | 69 | |
| 20260906065411 | 13 | 46 | 3.2 | 8.0 | 0.00 | 0.00 | 0.00 | 70 | |
| 20260906064911 | 13 | 46 | 3.2 | 8.0 | 0.00 | 0.00 | 0.00 | 70 | |
| 20260906064411 | 13 | 28 | 4.8 | 8.0 | 0.00 | 0.00 | 0.00 | 70 | |
| 20260906063911 | 13 | 28 | 4.8 | 8.0 | 0.00 | 0.00 | 0.00 | 70 | |
| 20260906063411 | 13 | 28 | 4.8 | 8.0 | 0.00 | 0.00 | 0.00 | 70 | |
| 20260906062911 | 13 | 28 | 1.6 | 3.2 | 0.00 | 0.00 | 0.00 | 70 | |
| 20260906062411 | 13 | 28 | 1.6 | 3.2 | 0.00 | 0.00 | 0.00 | 70 | |
| 20260906061911 | 14 | 0 | 0.0 | 3.2 | 0.00 | 0.00 | 0.00 | 67 | |
| 20260906061411 | 14 | 0 | 0.0 | 3.2 | 0.00 | 0.00 | 0.00 | 67 | |
| 20260906060911 | 14 | 91 | 3.2 | 12.9 | 0.00 | 0.00 | 0.00 | 66 | |
| 20260906060411 | 14 | 91 | 3.2 | 12.9 | 0.00 | 0.00 | 0.00 | 66 | |
| 20260906055911 | 14 | 91 | 3.2 | 12.9 | 0.00 | 0.00 | 0.00 | 66 | |
| 20260906055411 | 14 | 79 | 4.8 | 8.0 | 0.00 | 0.00 | 0.00 | 66 | |
| 20260906054911 | 14 | 79 | 4.8 | 8.0 | 0.00 | 0.00 | 0.00 | 66 | |
| 20260906054411 | 14 | 83 | 1.6 | 6.4 | 0.00 | 0.00 | 0.00 | 66 | |
| 20260906053911 | 14 | 83 | 1.6 | 6.4 | 0.00 | 0.00 | 0.00 | 66 | |
| 20260906053411 | 14 | 83 | 1.6 | 6.4 | 0.00 | 0.00 | 0.00 | 66 | |
| 20260906052911 | 14 | 49 | 3.2 | 12.9 | 0.00 | 0.00 | 0.00 | 67 | |
| 20260906052411 | 14 | 49 | 3.2 | 12.9 | 0.00 | 0.00 | 0.00 | 67 | |
| 20260906051911 | 13 | 5 | 3.2 | 6.4 | 0.00 | 0.00 | 0.00 | 69 | |
| 20260906051411 | 13 | 5 | 3.2 | 6.4 | 0.00 | 0.00 | 0.00 | 69 | |
| 20260906050911 | 13 | 51 | 4.8 | 8.0 | 0.00 | 0.00 | 0.00 | 68 | |
| 20260906050411 | 13 | 51 | 4.8 | 8.0 | 0.00 | 0.00 | 0.00 | 68 | |
| 20260906045911 | 13 | 51 | 4.8 | 8.0 | 0.00 | 0.00 | 0.00 | 68 | |
| 20260906045411 | 13 | 12 | 1.6 | 4.8 | 0.00 | 0.00 | 0.00 | 70 | |
| 20260906044911 | 13 | 12 | 1.6 | 4.8 | 0.00 | 0.00 | 0.00 | 70 | |
| 20260906044411 | 13 | 18 | 3.2 | 8.0 | 0.00 | 0.00 | 0.00 | 71 | |
| 20260906043911 | 13 | 18 | 3.2 | 8.0 | 0.00 | 0.00 | 0.00 | 71 | |
| 20260906043411 | 13 | 18 | 3.2 | 8.0 | 0.00 | 0.00 | 0.00 | 71 | |
| 20260906042911 | 13 | 347 | 3.2 | 4.8 | 0.00 | 0.00 | 0.00 | 70 | |
| 20260906042411 | 13 | 347 | 3.2 | 4.8 | 0.00 | 0.00 | 0.00 | 70 | |
| 20260906041911 | 14 | 327 | 0.0 | 4.8 | 0.00 | 0.00 | 0.00 | 70 | |
| 20260906041411 | 14 | 327 | 0.0 | 4.8 | 0.00 | 0.00 | 0.00 | 70 | |
| 20260906040911 | 14 | 20 | 3.2 | 6.4 | 0.00 | 0.00 | 0.00 | 69 | |
| 20260906040411 | 14 | 20 | 3.2 | 6.4 | 0.00 | 0.00 | 0.00 | 69 | |
| 20260906035911 | 14 | 20 | 3.2 | 6.4 | 0.00 | 0.00 | 0.00 | 69 | |
| 20260906035411 | 15 | 2 | 1.6 | 6.4 | 0.00 | 0.00 | 0.00 | 68 | |
| 20260906034911 | 15 | 2 | 1.6 | 6.4 | 0.00 | 0.00 | 0.00 | 68 | |
| 20260906034411 | 15 | 354 | 1.6 | 3.2 | 0.00 | 0.00 | 0.00 | 67 | |
| 20260906033911 | 15 | 354 | 1.6 | 3.2 | 0.00 | 0.00 | 0.00 | 67 | |
| 20260906033411 | 15 | 354 | 1.6 | 3.2 | 0.00 | 0.00 | 0.00 | 67 | |
| 20260906032911 | 16 | 14 | 1.6 | 3.2 | 0.00 | 0.00 | 0.00 | 65 | |
| 20260906032411 | 16 | 14 | 1.6 | 3.2 | 0.00 | 0.00 | 0.00 | 65 | |
| 20260906031911 | 17 | 352 | 1.6 | 3.2 | 0.00 | 0.00 | 0.00 | 63 | |
| 20260906031411 | 17 | 352 | 1.6 | 3.2 | 0.00 | 0.00 | 0.00 | 63 | |
| 20260906030911 | 18 | 0 | 0.0 | 0.0 | 0.00 | 0.00 | 0.00 | 60 | |
| 20260906030411 | 18 | 0 | 0.0 | 0.0 | 0.00 | 0.00 | 0.00 | 60 | |
| 20260906025911 | 18 | 0 | 0.0 | 0.0 | 0.00 | 0.00 | 0.00 | 60 | |
| 20260906025411 | 20 | 355 | 1.6 | 4.8 | 0.00 | 0.00 | 0.00 | 58 | |
| 20260906024911 | 20 | 355 | 1.6 | 4.8 | 0.00 | 0.00 | 0.00 | 58 | |
| 20260906024411 | 22 | 346 | 1.6 | 6.4 | 0.00 | 0.00 | 0.00 | 48 | |
| 20260906023911 | 22 | 346 | 1.6 | 6.4 | 0.00 | 0.00 | 0.00 | 48 | |
| 20260906023411 | 22 | 346 | 1.6 | 6.4 | 0.00 | 0.00 | 0.00 | 48 | |
| 20260906022911 | 23 | 31 | 1.6 | 4.8 | 0.00 | 0.00 | 0.00 | 44 | |
| 20260906022411 | 23 | 31 | 1.6 | 4.8 | 0.00 | 0.00 | 0.00 | 44 | |
| 20260906021911 | 23 | 42 | 3.2 | 4.8 | 0.00 | 0.00 | 0.00 | 41 | |
| 20260906021411 | 23 | 42 | 3.2 | 4.8 | 0.00 | 0.00 | 0.00 | 41 | |
| 20260906020911 | 23 | 58 | 4.8 | 8.0 | 0.00 | 0.00 | 0.00 | 42 | |
| 20260906020411 | 23 | 58 | 4.8 | 8.0 | 0.00 | 0.00 | 0.00 | 42 | |
| 20260906015911 | 23 | 58 | 4.8 | 8.0 | 0.00 | 0.00 | 0.00 | 42 | |
| 20260906015411 | 24 | 123 | 4.8 | 12.9 | 0.00 | 0.00 | 0.00 | 38 | |
| 20260906014911 | 24 | 123 | 4.8 | 12.9 | 0.00 | 0.00 | 0.00 | 38 | |
| 20260906014411 | 25 | 154 | 4.8 | 9.7 | 0.00 | 0.00 | 0.00 | 38 | |
| 20260906013911 | 25 | 154 | 4.8 | 9.7 | 0.00 | 0.00 | 0.00 | 38 | |
| 20260906013411 | 25 | 154 | 4.8 | 9.7 | 0.00 | 0.00 | 0.00 | 38 | |
| 20260906012911 | 25 | 134 | 6.4 | 8.0 | 0.00 | 0.00 | 0.00 | 37 | |
| 20260906012411 | 25 | 134 | 6.4 | 8.0 | 0.00 | 0.00 | 0.00 | 37 | |
| 20260906011911 | 25 | 136 | 8.0 | 14.5 | 0.00 | 0.00 | 0.00 | 36 | |
| 20260906011411 | 25 | 136 | 8.0 | 14.5 | 0.00 | 0.00 | 0.00 | 36 | |
| 20260906010911 | 26 | 113 | 8.0 | 16.1 | 0.00 | 0.00 | 0.00 | 36 | |
| 20260906010411 | 26 | 113 | 8.0 | 16.1 | 0.00 | 0.00 | 0.00 | 36 | |
| 20260906005911 | 26 | 113 | 8.0 | 16.1 | 0.00 | 0.00 | 0.00 | 36 | |
| 20260906005411 | 26 | 133 | 8.0 | 12.9 | 0.00 | 0.00 | 0.00 | 35 | |
| 20260906004911 | 26 | 133 | 8.0 | 12.9 | 0.00 | 0.00 | 0.00 | 35 | |
| 20260906004411 | 26 | 145 | 8.0 | 11.3 | 0.00 | 0.00 | 0.00 | 36 | |
| 20260906003912 | 26 | 145 | 8.0 | 11.3 | 0.00 | 0.00 | 0.00 | 36 | |
| 20260906003411 | 26 | 145 | 8.0 | 11.3 | 0.00 | 0.00 | 0.00 | 36 | |
| 20260906002911 | 26 | 135 | 8.0 | 11.3 | 0.00 | 0.00 | 0.00 | 35 | |
| 20260906002411 | 26 | 135 | 8.0 | 11.3 | 0.00 | 0.00 | 0.00 | 35 | |
| 20260906001911 | 26 | 107 | 8.0 | 14.5 | 0.00 | 0.00 | 0.00 | 35 | |
| 20260906001411 | 26 | 107 | 8.0 | 14.5 | 0.00 | 0.00 | 0.00 | 35 | |
| 20260906000911 | 26 | 157 | 9.7 | 14.5 | 0.00 | 0.00 | 0.00 | 34 | |
| 20260906000411 | 26 | 157 | 9.7 | 14.5 | 0.00 | 0.00 | 0.00 | 34 | |
| 20260905235911 | 26 | 157 | 9.7 | 14.5 | 0.00 | 0.00 | 0.00 | 34 | |
| 20260905235411 | 26 | 137 | 9.7 | 16.1 | 0.00 | 0.00 | 0.00 | 35 | |
| 20260905234911 | 26 | 137 | 9.7 | 16.1 | 0.00 | 0.00 | 0.00 | 35 | |
| 20260905234411 | 26 | 56 | 3.2 | 6.4 | 0.00 | 0.00 | 0.00 | 35 | |
| 20260905233911 | 26 | 56 | 3.2 | 6.4 | 0.00 | 0.00 | 0.00 | 35 | |
| 20260905233411 | 26 | 56 | 3.2 | 6.4 | 0.00 | 0.00 | 0.00 | 35 | |
| 20260905232911 | 26 | 142 | 11.3 | 16.1 | 0.00 | 0.00 | 0.00 | 35 | |
| 20260905232411 | 26 | 142 | 11.3 | 16.1 | 0.00 | 0.00 | 0.00 | 35 | |
| 20260905231911 | 26 | 159 | 4.8 | 12.9 | 0.00 | 0.00 | 0.00 | 35 | |
| 20260905231411 | 26 | 159 | 4.8 | 12.9 | 0.00 | 0.00 | 0.00 | 35 | |
| 20260905230911 | 26 | 97 | 9.7 | 12.9 | 0.00 | 0.00 | 0.00 | 35 | |
| 20260905230411 | 26 | 97 | 9.7 | 12.9 | 0.00 | 0.00 | 0.00 | 35 | |
| 20260905225911 | 26 | 97 | 9.7 | 12.9 | 0.00 | 0.00 | 0.00 | 35 | |
| 20260905225411 | 26 | 139 | 6.4 | 12.9 | 0.00 | 0.00 | 0.00 | 35 | |
| 20260905224911 | 26 | 139 | 6.4 | 12.9 | 0.00 | 0.00 | 0.00 | 35 | |
| 20260905224411 | 26 | 119 | 11.3 | 17.7 | 0.00 | 0.00 | 0.00 | 35 | |
| 20260905223911 | 26 | 119 | 11.3 | 17.7 | 0.00 | 0.00 | 0.00 | 35 | |
| 20260905223411 | 26 | 119 | 11.3 | 17.7 | 0.00 | 0.00 | 0.00 | 35 | |
| 20260905222911 | 25 | 129 | 9.7 | 12.9 | 0.00 | 0.00 | 0.00 | 36 | |
| 20260905222411 | 25 | 129 | 9.7 | 12.9 | 0.00 | 0.00 | 0.00 | 36 | |
| 20260905221911 | 25 | 148 | 8.0 | 14.5 | 0.00 | 0.00 | 0.00 | 35 | |
| 20260905221411 | 25 | 148 | 8.0 | 14.5 | 0.00 | 0.00 | 0.00 | 35 | |
| 20260905220912 | 24 | 182 | 9.7 | 19.3 | 0.00 | 0.00 | 0.00 | 38 | |
| 20260905220411 | 24 | 182 | 9.7 | 19.3 | 0.00 | 0.00 | 0.00 | 38 | |
| 20260905215911 | 24 | 182 | 9.7 | 19.3 | 0.00 | 0.00 | 0.00 | 38 | |
| 20260905215411 | 24 | 139 | 9.7 | 14.5 | 0.00 | 0.00 | 0.00 | 37 | |
| 20260905214911 | 24 | 139 | 9.7 | 14.5 | 0.00 | 0.00 | 0.00 | 37 | |
| 20260905214411 | 25 | 140 | 6.4 | 11.3 | 0.00 | 0.00 | 0.00 | 37 | |
| 20260905213911 | 25 | 140 | 6.4 | 11.3 | 0.00 | 0.00 | 0.00 | 37 | |
| 20260905213411 | 25 | 140 | 6.4 | 11.3 | 0.00 | 0.00 | 0.00 | 37 | |
| 20260905212911 | 23 | 161 | 8.0 | 16.1 | 0.00 | 0.00 | 0.00 | 38 | |
| 20260905212411 | 23 | 161 | 8.0 | 16.1 | 0.00 | 0.00 | 0.00 | 38 | |
| 20260905211911 | 24 | 139 | 8.0 | 11.3 | 0.00 | 0.00 | 0.00 | 38 | |
| 20260905211411 | 24 | 139 | 8.0 | 11.3 | 0.00 | 0.00 | 0.00 | 38 | |
| 20260905210911 | 24 | 133 | 8.0 | 14.5 | 0.00 | 0.00 | 0.00 | 39 | |
| 20260905210411 | 24 | 133 | 8.0 | 14.5 | 0.00 | 0.00 | 0.00 | 39 |